createdAt,value
2022-11-19T00:01:46.551Z,24.73
2022-11-19T00:06:51.215Z,22.73
2022-11-19T00:12:11.810Z,19.27
2022-11-19T00:17:16.283Z,22.13
2022-11-19T00:22:19.329Z,21.63
2022-11-19T00:27:22.472Z,18.03
2022-11-19T00:32:27.117Z,18.37
2022-11-19T00:37:30.272Z,18.70
2022-11-19T00:42:33.560Z,19.83
2022-11-19T00:47:37.956Z,20.83
2022-11-19T00:52:41.166Z,19.17
2022-11-19T00:57:44.226Z,20.03
2022-11-19T01:02:48.629Z,18.73
2022-11-19T01:07:51.631Z,19.53
2022-11-19T01:13:12.195Z,18.67
2022-11-19T01:18:17.151Z,18.20
2022-11-19T01:23:20.100Z,18.93
2022-11-19T01:28:23.332Z,18.67
2022-11-19T01:33:28.013Z,16.70
2022-11-19T01:38:32.061Z,17.47
2022-11-19T01:43:44.245Z,19.10
2022-11-19T01:48:53.058Z,16.00
2022-11-19T01:54:00.339Z,14.33
2022-11-19T01:59:06.544Z,15.17
2022-11-19T02:04:13.263Z,14.70
2022-11-19T02:09:16.759Z,13.07
2022-11-19T02:14:36.652Z,16.43
2022-11-19T02:20:13.940Z,18.03
2022-11-19T02:25:34.628Z,16.87
2022-11-19T02:30:41.656Z,16.50
2022-11-19T02:35:51.418Z,18.23
2022-11-19T02:40:59.483Z,18.43
2022-11-19T02:46:08.718Z,19.27
2022-11-19T02:51:15.073Z,16.17
2022-11-19T02:56:51.429Z,20.50
2022-11-19T03:02:13.697Z,17.13
2022-11-19T03:07:20.388Z,16.63
2022-11-19T03:12:29.766Z,17.57
2022-11-19T03:17:44.975Z,16.17
2022-11-19T03:22:53.366Z,16.77
2022-11-19T03:28:02.528Z,18.20
2022-11-19T03:33:11.902Z,16.87
2022-11-19T03:38:21.145Z,16.10
2022-11-19T03:43:28.358Z,16.70
2022-11-19T03:48:33.294Z,18.93
2022-11-19T03:53:36.796Z,18.90
2022-11-19T03:58:41.837Z,17.67
2022-11-19T04:04:06.252Z,18.00
2022-11-19T04:09:09.552Z,18.33
2022-11-19T04:14:12.759Z,17.40
2022-11-19T04:19:18.469Z,20.20
2022-11-19T04:24:21.660Z,19.00
2022-11-19T04:29:24.751Z,20.43
2022-11-19T04:34:29.209Z,20.37
2022-11-19T04:39:32.265Z,20.23
2022-11-19T04:44:35.297Z,20.80
2022-11-19T04:49:39.855Z,20.33
2022-11-19T04:54:43.260Z,21.13
2022-11-19T04:59:46.436Z,19.23
2022-11-19T05:04:51.056Z,20.67
2022-11-19T05:09:54.146Z,21.67
2022-11-19T05:14:57.398Z,21.97
2022-11-19T05:20:03.322Z,19.93
2022-11-19T05:25:07.066Z,21.73
2022-11-19T05:30:11.538Z,20.70
2022-11-19T05:35:16.256Z,22.43
2022-11-19T05:40:20.547Z,20.80
2022-11-19T05:45:23.633Z,20.30
2022-11-19T05:50:28.583Z,20.93
2022-11-19T05:55:33.380Z,20.17
2022-11-19T06:00:36.487Z,19.57
2022-11-19T06:05:41.007Z,21.70
2022-11-19T06:10:44.132Z,22.87
2022-11-19T06:15:47.219Z,20.73
2022-11-19T06:20:51.777Z,20.83
2022-11-19T06:25:55.936Z,20.77
2022-11-19T06:30:58.920Z,21.33
2022-11-19T06:36:03.680Z,21.10
2022-11-19T06:41:07.542Z,22.00
2022-11-19T06:46:11.171Z,21.07
2022-11-19T06:51:15.990Z,20.43
2022-11-19T06:56:19.475Z,22.00
2022-11-19T07:01:22.697Z,21.17
2022-11-19T07:06:27.109Z,22.47
2022-11-19T07:11:31.129Z,22.17
2022-11-19T07:16:35.280Z,21.57
2022-11-19T07:21:39.922Z,22.67
2022-11-19T07:26:43.021Z,20.77
2022-11-19T07:31:50.468Z,21.80
2022-11-19T07:36:55.590Z,22.40
2022-11-19T07:42:16.644Z,22.63
2022-11-19T07:47:22.075Z,21.43
2022-11-19T07:52:26.738Z,23.17
2022-11-19T07:57:30.474Z,19.43
2022-11-19T08:02:33.830Z,20.07
2022-11-19T08:07:39.763Z,20.33
2022-11-19T08:13:02.901Z,21.07
2022-11-19T08:18:16.141Z,21.67
2022-11-19T08:23:20.488Z,21.20
2022-11-19T08:28:23.532Z,19.50
2022-11-19T08:33:29.322Z,19.40
2022-11-19T08:38:38.420Z,20.27
2022-11-19T08:43:42.507Z,20.63
2022-11-19T08:48:45.901Z,20.03
2022-11-19T08:53:53.013Z,21.03
2022-11-19T08:59:01.281Z,18.60
2022-11-19T09:04:06.291Z,19.03
2022-11-19T09:09:11.072Z,18.90
2022-11-19T09:14:14.225Z,21.20
2022-11-19T09:19:17.542Z,20.23
2022-11-19T09:24:22.511Z,18.97
2022-11-19T09:29:26.043Z,19.43
2022-11-19T09:34:29.133Z,17.77
2022-11-19T09:39:33.559Z,18.40
2022-11-19T09:44:59.494Z,18.33
2022-11-19T09:50:07.998Z,16.53
2022-11-19T09:55:18.091Z,17.00
2022-11-19T10:00:24.218Z,18.37
2022-11-19T10:05:38.264Z,17.87
2022-11-19T10:10:49.394Z,17.27
2022-11-19T10:16:04.165Z,21.80
2022-11-19T10:21:12.653Z,15.73
2022-11-19T10:44:37.503Z,17.60
2022-11-19T10:49:42.877Z,18.60
2022-11-19T10:54:47.938Z,18.33
2022-11-19T10:59:54.637Z,18.27
2022-11-19T11:05:04.112Z,16.93
2022-11-19T11:10:27.430Z,17.87
2022-11-19T11:15:31.995Z,16.33
2022-11-19T11:20:39.006Z,17.03
2022-11-19T11:25:51.777Z,18.53
2022-11-19T11:30:58.166Z,18.67
2022-11-19T11:36:04.653Z,16.97
2022-11-19T11:46:47.814Z,15.13
2022-11-19T11:52:00.993Z,16.73
2022-11-19T11:57:16.957Z,17.03
2022-11-19T12:02:27.112Z,15.27
2022-11-19T12:08:01.017Z,13.17
2022-11-19T12:13:44.983Z,14.93
2022-11-19T12:19:04.304Z,13.40
2022-11-19T12:24:23.903Z,12.67
2022-11-19T12:29:35.776Z,12.17
2022-11-19T12:35:04.739Z,11.53
2022-11-19T12:40:22.416Z,12.17
2022-11-19T12:45:36.863Z,12.03
2022-11-19T12:50:51.265Z,11.43
2022-11-19T12:56:06.422Z,10.97
2022-11-19T13:01:15.705Z,10.47
2022-11-19T13:06:26.052Z,10.90
2022-11-19T13:24:32.358Z,10.97
2022-11-19T13:29:42.313Z,10.53
2022-11-19T13:34:58.389Z,10.30
2022-11-19T13:40:08.273Z,11.20
2022-11-19T13:45:15.887Z,10.40
2022-11-19T13:50:27.012Z,11.03
2022-11-19T13:55:39.215Z,10.60
2022-11-19T14:00:57.469Z,9.50
2022-11-19T14:06:19.517Z,10.83
2022-11-19T14:11:37.507Z,9.47
2022-11-19T14:17:05.640Z,9.40
2022-11-19T14:22:50.258Z,10.67
2022-11-19T14:27:54.985Z,9.97
2022-11-19T14:33:01.178Z,9.30
2022-11-19T14:38:35.992Z,9.50
2022-11-19T14:44:11.244Z,9.10
2022-11-19T14:49:28.168Z,9.83
2022-11-19T14:54:34.897Z,8.70
2022-11-19T14:59:40.070Z,9.30
2022-11-19T15:04:51.369Z,9.17
2022-11-19T15:10:12.291Z,9.07
2022-11-19T15:15:42.823Z,9.67
2022-11-19T15:21:05.564Z,9.10
2022-11-19T15:26:20.161Z,8.97
2022-11-19T15:31:34.752Z,7.93
2022-11-19T15:36:41.235Z,7.70
2022-11-19T15:42:00.450Z,8.23
2022-11-19T15:47:12.408Z,7.13
2022-11-19T15:52:22.202Z,8.90
2022-11-19T15:57:28.555Z,7.77
2022-11-19T16:02:38.534Z,7.00
2022-11-19T16:07:41.880Z,7.20
2022-11-19T16:13:11.994Z,9.57
2022-11-19T16:18:17.764Z,8.07
2022-11-19T16:23:23.609Z,7.57
2022-11-19T16:28:30.503Z,8.20
2022-11-19T16:33:35.676Z,7.10
2022-11-19T16:38:41.652Z,8.00
2022-11-19T16:43:48.471Z,7.40
2022-11-19T16:48:59.057Z,7.13
2022-11-19T16:54:02.696Z,8.43
2022-11-19T16:59:06.588Z,6.60
2022-11-19T17:04:15.295Z,6.10
2022-11-19T17:09:35.720Z,6.17
2022-11-19T17:14:58.193Z,6.20
2022-11-19T17:20:02.664Z,6.47
2022-11-19T17:25:06.540Z,8.53
2022-11-19T17:30:12.221Z,7.23
2022-11-19T17:35:35.294Z,7.10
2022-11-19T17:40:39.309Z,6.87
2022-11-19T17:45:42.588Z,7.50
2022-11-19T17:50:47.275Z,10.83
2022-11-19T17:55:53.688Z,7.67
2022-11-19T18:00:57.301Z,7.50
2022-11-19T18:06:02.587Z,8.67
2022-11-19T18:11:05.903Z,7.07
2022-11-19T18:16:14.943Z,7.70
2022-11-19T18:21:20.706Z,7.50
2022-11-19T18:26:24.052Z,9.47
2022-11-19T18:31:28.994Z,6.47
2022-11-19T18:36:33.401Z,6.37
2022-11-19T18:41:36.573Z,6.27
2022-11-19T18:46:39.623Z,7.17
2022-11-19T18:51:44.443Z,6.80
2022-11-19T18:56:47.719Z,9.37
2022-11-19T19:01:52.239Z,7.13
2022-11-19T19:06:59.385Z,7.67
2022-11-19T19:12:21.467Z,7.10
2022-11-19T19:17:24.503Z,7.00
2022-11-19T19:22:29.934Z,7.77
2022-11-19T19:27:33.275Z,7.10
2022-11-19T19:32:36.216Z,7.33
2022-11-19T19:37:42.486Z,7.77
2022-11-19T19:42:45.635Z,7.70
2022-11-19T19:47:48.568Z,7.67
2022-11-19T19:52:52.976Z,8.83
2022-11-19T19:57:58.913Z,9.07
2022-11-19T20:03:01.894Z,10.07
2022-11-19T20:08:06.746Z,9.43
2022-11-19T20:13:28.488Z,8.23
2022-11-19T20:18:33.042Z,9.40
2022-11-19T20:23:38.122Z,8.23
2022-11-19T20:28:41.424Z,9.73
2022-11-19T20:33:45.598Z,12.03
2022-11-19T20:38:50.392Z,10.43
2022-11-19T20:44:11.099Z,10.20
2022-11-19T20:49:17.207Z,8.67
2022-11-19T20:54:22.552Z,9.77
2022-11-19T20:59:29.051Z,9.37
2022-11-19T21:04:36.433Z,9.17
2022-11-19T21:09:41.345Z,10.40
2022-11-19T21:14:44.266Z,10.07
2022-11-19T21:19:47.263Z,8.60
2022-11-19T21:24:51.794Z,10.20
2022-11-19T21:29:54.780Z,9.13
2022-11-19T21:35:00.558Z,10.10
2022-11-19T21:40:05.890Z,8.60
2022-11-19T21:45:09.906Z,10.37
2022-11-19T21:50:13.126Z,9.83
2022-11-19T21:55:17.581Z,9.50
2022-11-19T22:00:21.370Z,9.93
2022-11-19T22:05:25.057Z,9.07
2022-11-19T22:10:32.645Z,9.40
2022-11-19T22:15:35.662Z,9.57
2022-11-19T22:20:38.807Z,9.37
2022-11-19T22:25:43.113Z,8.87
2022-11-19T22:30:53.319Z,9.90
2022-11-19T22:35:58.553Z,10.40
2022-11-19T22:41:06.309Z,9.03
2022-11-19T22:46:11.224Z,8.07
2022-11-19T22:51:16.470Z,9.17
2022-11-19T22:56:23.062Z,9.63
2022-11-19T23:01:28.432Z,9.20
2022-11-19T23:06:31.389Z,10.83
2022-11-19T23:11:53.829Z,10.53
2022-11-19T23:16:57.049Z,12.37
2022-11-19T23:22:00.027Z,11.17
2022-11-19T23:27:04.538Z,10.40
2022-11-19T23:32:07.800Z,11.00
2022-11-19T23:37:11.060Z,10.63
2022-11-19T23:42:15.399Z,10.20
2022-11-19T23:47:18.661Z,11.23
2022-11-19T23:52:22.221Z,11.30
2022-11-19T23:57:28.704Z,9.87
